Terminal Aerodrome Forecast
Issued by NWS

Home | Current Version | Previous Version | Text Only | Print | Product List | Glossary On
Versions: 1 2 3 4 5 6 7 8 9 10 11 12 13 14 15 16 17 18 19
669
FTUS45 KRIW 281730
TAFCPR
TAF
KCPR 281730Z 2818/2918 07015G25KT 2SM -SN SCT008 OVC014
      TEMPO 2818/2821 1SM -SN OVC008
     FM290100 05008KT 4SM -SN SCT008 OVC015
     FM290400 06009KT P6SM VCSH SCT014 OVC022
     FM291400 01008KT P6SM SCT020 BKN035=

USA.gov is the U.S. government's official web portal to all federal, state and local government web resources and services.